createdAt,value
2023-03-26T00:00:57.850Z,0.60
2023-03-26T00:02:00.119Z,0.70
2023-03-26T00:03:02.060Z,0.60
2023-03-26T00:04:06.723Z,0.60
2023-03-26T00:05:09.348Z,0.90
2023-03-26T00:06:17.107Z,0.60
2023-03-26T00:07:19.459Z,0.55
2023-03-26T00:08:22.156Z,0.68
2023-03-26T00:09:24.068Z,0.60
2023-03-26T00:10:26.064Z,0.73
2023-03-26T00:11:29.552Z,0.52
2023-03-26T00:12:31.747Z,0.60
2023-03-26T00:13:33.896Z,0.68
2023-03-26T00:14:35.746Z,0.60
2023-03-26T00:15:37.970Z,0.60
2023-03-26T00:16:42.060Z,0.77
2023-03-26T00:17:46.521Z,0.50
2023-03-26T00:18:49.010Z,0.70
2023-03-26T00:19:50.837Z,0.45
2023-03-26T00:20:52.709Z,0.47
2023-03-26T00:21:54.662Z,0.77
2023-03-26T00:22:56.855Z,0.68
2023-03-26T00:24:08.156Z,0.68
2023-03-26T00:25:10.204Z,0.50
2023-03-26T00:26:12.929Z,0.70
2023-03-26T00:27:14.842Z,0.60
2023-03-26T00:28:21.512Z,0.60
2023-03-26T00:29:24.693Z,0.70
2023-03-26T00:30:27.747Z,0.60
2023-03-26T00:31:29.773Z,0.70
2023-03-26T00:32:32.391Z,0.45
2023-03-26T00:33:38.491Z,0.60
2023-03-26T00:34:41.484Z,0.68
2023-03-26T00:35:47.004Z,0.50
2023-03-26T00:36:54.275Z,0.70
2023-03-26T00:37:56.146Z,0.70
2023-03-26T00:38:58.521Z,0.70
2023-03-26T00:40:06.887Z,0.55
2023-03-26T00:41:24.996Z,0.60
2023-03-26T00:42:26.942Z,0.60
2023-03-26T00:43:32.876Z,0.60
2023-03-26T00:44:35.356Z,0.70
2023-03-26T00:45:37.258Z,0.45
2023-03-26T00:46:39.448Z,0.47
2023-03-26T00:47:43.534Z,0.47
2023-03-26T00:48:46.372Z,0.68
2023-03-26T00:49:49.300Z,0.62
2023-03-26T00:50:51.186Z,0.40
2023-03-26T00:51:53.260Z,0.68
2023-03-26T00:52:55.902Z,0.60
2023-03-26T00:53:58.149Z,0.68
2023-03-26T00:55:00.440Z,0.68
2023-03-26T00:56:02.293Z,0.60
2023-03-26T00:57:06.916Z,0.60
2023-03-26T00:58:12.246Z,0.68
2023-03-26T00:59:14.260Z,0.70
2023-03-26T01:00:18.932Z,0.60
2023-03-26T01:01:27.190Z,0.60
2023-03-26T01:02:29.794Z,0.57
2023-03-26T01:03:35.185Z,0.62
2023-03-26T01:04:37.921Z,0.62
2023-03-26T01:05:55.260Z,0.73
2023-03-26T01:07:02.426Z,0.68
2023-03-26T01:08:20.513Z,0.60
2023-03-26T01:09:30.664Z,0.40
2023-03-26T01:10:38.666Z,0.60
2023-03-26T01:11:42.323Z,0.70
2023-03-26T01:12:44.265Z,0.70
2023-03-26T01:13:52.446Z,0.70
2023-03-26T01:15:00.826Z,0.90
2023-03-26T01:16:07.897Z,0.70
2023-03-26T01:17:12.502Z,0.60
2023-03-26T01:18:14.609Z,0.60
2023-03-26T01:19:42.373Z,0.50
2023-03-26T01:20:46.932Z,0.70
2023-03-26T01:21:49.039Z,0.60
2023-03-26T01:22:54.735Z,0.90
2023-03-26T01:24:01.944Z,0.60
2023-03-26T01:25:04.288Z,0.77
2023-03-26T01:26:32.052Z,0.60
2023-03-26T01:27:44.471Z,0.70
2023-03-26T01:28:46.993Z,0.70
2023-03-26T01:30:10.481Z,0.52
2023-03-26T01:31:44.563Z,0.70
2023-03-26T01:33:01.646Z,0.70
2023-03-26T01:34:37.349Z,0.68
2023-03-26T01:36:01.224Z,0.68
2023-03-26T01:37:20.980Z,0.60
2023-03-26T01:38:46.778Z,0.68
2023-03-26T01:39:57.074Z,0.70
2023-03-26T01:41:10.792Z,0.65
2023-03-26T01:42:21.562Z,0.80
2023-03-26T01:43:49.084Z,0.70
2023-03-26T01:44:59.470Z,0.60
2023-03-26T01:46:05.322Z,0.60
2023-03-26T01:47:08.634Z,0.85
2023-03-26T01:48:10.725Z,0.52
2023-03-26T01:49:15.879Z,0.65
2023-03-26T01:50:18.072Z,0.73
2023-03-26T01:51:32.079Z,0.65
2023-03-26T01:52:34.170Z,0.68
2023-03-26T01:53:42.582Z,0.50
2023-03-26T01:54:46.772Z,0.62
2023-03-26T01:56:12.727Z,0.57
2023-03-26T01:57:40.774Z,0.65
2023-03-26T01:58:42.842Z,0.55
2023-03-26T01:59:44.642Z,0.70
2023-03-26T02:01:03.520Z,0.60
2023-03-26T02:02:30.836Z,0.60
2023-03-26T02:03:39.094Z,0.60
2023-03-26T02:04:53.440Z,0.70
2023-03-26T02:06:37.620Z,1.23
2023-03-26T02:07:58.579Z,0.70
2023-03-26T02:09:06.010Z,0.73
2023-03-26T02:10:24.085Z,0.75
2023-03-26T02:11:34.760Z,0.70
2023-03-26T02:12:37.855Z,0.60
2023-03-26T02:13:42.131Z,0.60
2023-03-26T02:14:44.738Z,0.43
2023-03-26T02:15:59.387Z,0.60
2023-03-26T02:17:01.662Z,0.50
2023-03-26T02:18:04.097Z,0.50
2023-03-26T02:19:09.996Z,0.70
2023-03-26T02:20:14.556Z,0.40
2023-03-26T02:21:22.196Z,0.70
2023-03-26T02:22:29.806Z,0.50
2023-03-26T02:23:35.769Z,0.62
2023-03-26T02:24:38.722Z,0.40
2023-03-26T02:25:42.085Z,0.50
2023-03-26T02:26:44.789Z,0.50
2023-03-26T02:27:47.618Z,0.70
2023-03-26T02:28:50.008Z,0.40
2023-03-26T02:29:52.091Z,0.50
2023-03-26T02:30:57.696Z,0.70
2023-03-26T02:31:59.736Z,0.90
2023-03-26T02:33:02.045Z,0.60
2023-03-26T02:34:04.655Z,0.60
2023-03-26T02:35:07.582Z,0.70
2023-03-26T02:36:12.613Z,0.52
2023-03-26T02:37:18.877Z,0.57
2023-03-26T02:38:25.293Z,0.70
2023-03-26T02:39:27.753Z,0.60
2023-03-26T02:40:30.137Z,0.60
2023-03-26T02:41:32.693Z,0.80
2023-03-26T02:42:35.182Z,0.60
2023-03-26T02:43:37.485Z,0.65
2023-03-26T02:44:42.121Z,0.60
2023-03-26T02:45:46.873Z,0.82
2023-03-26T02:46:52.670Z,0.60
2023-03-26T02:47:56.091Z,0.60
2023-03-26T02:49:03.674Z,0.70
2023-03-26T02:50:06.049Z,0.43
2023-03-26T02:51:09.524Z,0.55
2023-03-26T02:52:12.322Z,0.57
2023-03-26T02:53:14.493Z,0.50
2023-03-26T02:55:29.012Z,0.68
2023-03-26T02:56:32.929Z,0.80
2023-03-26T02:57:36.150Z,0.93
2023-03-26T02:58:39.366Z,0.70
2023-03-26T02:59:42.333Z,0.60
2023-03-26T03:00:47.262Z,0.70
2023-03-26T03:01:50.300Z,0.70
2023-03-26T03:02:54.198Z,0.82
2023-03-26T03:03:57.655Z,0.85
2023-03-26T03:05:01.585Z,0.70
2023-03-26T03:06:05.214Z,0.90
2023-03-26T03:07:08.317Z,1.10
2023-03-26T03:08:10.700Z,0.80
2023-03-26T03:09:13.460Z,1.20
2023-03-26T03:10:21.780Z,1.00
2023-03-26T03:11:25.102Z,0.88
2023-03-26T03:12:27.108Z,0.95
2023-03-26T03:13:29.216Z,0.80
2023-03-26T03:14:31.690Z,0.80
2023-03-26T03:15:34.851Z,0.82
2023-03-26T03:16:36.908Z,0.50
2023-03-26T03:17:40.572Z,0.57
2023-03-26T03:18:42.683Z,0.50
2023-03-26T03:19:45.323Z,0.60
2023-03-26T03:20:47.880Z,0.57
2023-03-26T03:21:49.826Z,0.62
2023-03-26T03:22:51.801Z,0.77
2023-03-26T03:23:55.233Z,0.40
2023-03-26T03:24:59.950Z,0.70
2023-03-26T03:26:02.670Z,0.55
2023-03-26T03:27:06.057Z,0.50
2023-03-26T03:28:08.754Z,0.47
2023-03-26T03:29:10.679Z,0.52
2023-03-26T03:30:13.943Z,0.50
2023-03-26T03:31:18.651Z,0.70
2023-03-26T03:32:22.552Z,0.45
2023-03-26T03:33:25.302Z,0.68
2023-03-26T03:34:27.843Z,0.60
2023-03-26T03:35:30.765Z,0.50
2023-03-26T03:36:33.420Z,0.50
2023-03-26T03:37:36.103Z,0.57
2023-03-26T03:38:39.775Z,0.60
2023-03-26T03:39:41.625Z,0.45
2023-03-26T03:40:45.099Z,0.52
2023-03-26T03:41:49.255Z,0.60
2023-03-26T03:42:51.811Z,0.52
2023-03-26T03:43:54.722Z,0.62
2023-03-26T03:44:58.828Z,0.62
2023-03-26T03:46:03.812Z,0.55
2023-03-26T03:47:07.035Z,0.50
2023-03-26T03:48:09.304Z,0.45
2023-03-26T03:49:11.853Z,0.55
2023-03-26T03:50:13.995Z,0.60
2023-03-26T03:51:18.840Z,0.70
2023-03-26T03:52:21.314Z,0.60
2023-03-26T03:53:26.053Z,0.68
2023-03-26T03:54:28.799Z,0.50
2023-03-26T03:55:32.157Z,0.55
2023-03-26T03:56:36.146Z,0.50
2023-03-26T03:57:40.602Z,0.70
2023-03-26T03:58:45.508Z,0.60
2023-03-26T03:59:58.303Z,0.60
2023-03-26T04:01:04.228Z,0.50
2023-03-26T04:02:09.081Z,0.60
2023-03-26T04:03:14.411Z,0.50
2023-03-26T04:04:17.871Z,0.60
2023-03-26T04:05:21.307Z,0.77
2023-03-26T04:06:25.303Z,0.50
2023-03-26T04:07:32.824Z,0.80
2023-03-26T04:08:39.273Z,0.62
2023-03-26T04:09:41.653Z,0.90
2023-03-26T04:10:45.394Z,0.70
2023-03-26T04:11:51.815Z,0.73
2023-03-26T04:12:54.388Z,0.65
2023-03-26T04:13:56.892Z,0.80
2023-03-26T04:14:59.880Z,0.60
2023-03-26T04:16:01.949Z,0.62
2023-03-26T04:17:05.956Z,0.55
2023-03-26T04:18:12.173Z,0.50
2023-03-26T04:19:15.304Z,0.60
2023-03-26T04:20:19.360Z,0.50
2023-03-26T04:21:21.703Z,0.70
2023-03-26T04:22:24.409Z,0.60
2023-03-26T04:23:29.306Z,0.70
2023-03-26T04:24:34.071Z,0.55
2023-03-26T04:25:39.434Z,0.60
2023-03-26T04:26:41.729Z,0.55
2023-03-26T04:27:44.232Z,0.60
2023-03-26T04:28:56.753Z,0.80
2023-03-26T04:30:01.673Z,0.70
2023-03-26T04:31:04.349Z,0.80
2023-03-26T04:32:12.642Z,0.60
2023-03-26T04:33:15.561Z,0.75
2023-03-26T04:34:26.150Z,0.70
2023-03-26T04:35:30.443Z,0.70
2023-03-26T04:36:34.297Z,0.60
2023-03-26T04:37:41.871Z,0.70
2023-03-26T04:38:49.324Z,0.80
2023-03-26T04:39:52.438Z,0.98
2023-03-26T04:41:00.296Z,0.80
2023-03-26T04:42:05.628Z,0.98
2023-03-26T04:43:13.029Z,1.37
2023-03-26T04:44:17.110Z,1.50
2023-03-26T04:45:23.257Z,1.35
2023-03-26T04:46:28.013Z,1.17
2023-03-26T04:47:30.402Z,1.20
2023-03-26T04:48:32.683Z,0.82
2023-03-26T04:49:35.044Z,0.90
2023-03-26T04:50:37.721Z,1.00
2023-03-26T04:51:41.997Z,0.77
2023-03-26T04:52:45.437Z,0.80
2023-03-26T04:53:54.790Z,1.00
2023-03-26T04:54:57.664Z,1.08
2023-03-26T04:56:02.556Z,1.08
2023-03-26T04:57:11.222Z,1.00
2023-03-26T04:58:14.080Z,0.90
2023-03-26T04:59:26.517Z,1.00
2023-03-26T05:01:37.939Z,1.20
2023-03-26T05:02:41.896Z,1.05
2023-03-26T05:03:45.765Z,1.00
2023-03-26T05:04:50.021Z,1.30
2023-03-26T05:05:53.083Z,0.85
2023-03-26T05:07:00.809Z,1.00
2023-03-26T05:08:03.767Z,0.90
2023-03-26T05:09:05.777Z,1.37
2023-03-26T05:10:13.480Z,1.00
2023-03-26T05:11:15.801Z,1.73
2023-03-26T05:12:18.085Z,1.17
2023-03-26T05:13:20.872Z,0.90
2023-03-26T05:14:23.278Z,0.90
2023-03-26T05:15:25.384Z,0.95
2023-03-26T05:16:29.486Z,0.98
2023-03-26T05:17:34.893Z,0.80
2023-03-26T05:18:37.356Z,0.70
2023-03-26T05:19:40.653Z,1.17
2023-03-26T05:20:43.568Z,1.00
2023-03-26T05:21:46.064Z,0.88
2023-03-26T05:22:50.119Z,0.90
2023-03-26T05:23:53.606Z,0.98
2023-03-26T05:24:56.331Z,1.33
2023-03-26T05:25:58.334Z,0.90
2023-03-26T05:27:00.376Z,1.25
2023-03-26T05:28:19.293Z,0.77
2023-03-26T05:29:24.174Z,1.00
2023-03-26T05:30:26.300Z,1.12
2023-03-26T05:31:30.847Z,0.80
2023-03-26T05:32:34.678Z,1.00
2023-03-26T05:33:37.356Z,1.20
2023-03-26T05:34:40.536Z,1.75
2023-03-26T05:35:43.551Z,0.90
2023-03-26T05:36:45.701Z,0.80
2023-03-26T05:37:51.495Z,1.10
2023-03-26T05:38:56.215Z,0.95
2023-03-26T05:40:00.717Z,0.90
2023-03-26T05:41:08.726Z,1.00
2023-03-26T05:42:10.982Z,1.90
2023-03-26T05:43:14.040Z,3.05
2023-03-26T05:44:16.609Z,3.03
2023-03-26T05:45:18.865Z,1.62
2023-03-26T05:46:22.985Z,1.40
2023-03-26T05:47:27.371Z,1.35
2023-03-26T05:48:29.615Z,1.20
2023-03-26T05:49:31.854Z,1.30
2023-03-26T05:50:33.796Z,1.10
2023-03-26T05:51:35.805Z,1.10
2023-03-26T05:52:44.617Z,1.10
2023-03-26T05:54:15.349Z,1.33
2023-03-26T05:55:20.275Z,1.60
2023-03-26T05:56:25.714Z,1.50
2023-03-26T05:57:35.611Z,1.65
2023-03-26T05:58:42.149Z,1.60
2023-03-26T06:00:04.745Z,1.65
2023-03-26T06:01:17.123Z,1.65
2023-03-26T06:02:19.789Z,1.25
2023-03-26T06:03:24.012Z,1.50
2023-03-26T06:04:28.667Z,1.70
2023-03-26T06:05:37.419Z,2.25
2023-03-26T06:06:40.072Z,1.52
2023-03-26T06:07:42.597Z,1.62
2023-03-26T06:09:01.578Z,1.92
2023-03-26T06:10:04.864Z,1.90
2023-03-26T06:11:08.206Z,1.60
2023-03-26T06:12:11.747Z,1.80
2023-03-26T06:13:16.264Z,1.60
2023-03-26T06:14:18.528Z,1.65
2023-03-26T06:15:25.941Z,1.90
2023-03-26T06:16:28.317Z,1.27
2023-03-26T06:17:30.926Z,1.17
2023-03-26T06:18:35.004Z,1.40
2023-03-26T06:19:38.125Z,1.58
2023-03-26T06:20:41.855Z,1.70
2023-03-26T06:21:44.417Z,1.70
2023-03-26T06:22:47.558Z,1.60
2023-03-26T06:23:51.716Z,1.50
2023-03-26T06:24:58.646Z,1.55
2023-03-26T06:26:01.436Z,1.67
2023-03-26T06:27:04.937Z,1.50
2023-03-26T06:28:07.286Z,1.80
2023-03-26T06:29:10.517Z,1.42
2023-03-26T06:30:12.982Z,1.55
2023-03-26T06:31:17.380Z,1.30
2023-03-26T06:32:20.357Z,1.40
2023-03-26T06:33:24.593Z,1.73
2023-03-26T06:34:28.315Z,1.60
2023-03-26T06:35:31.100Z,1.50
2023-03-26T06:36:33.649Z,1.67
2023-03-26T06:37:36.251Z,1.70
2023-03-26T06:38:38.096Z,1.80
2023-03-26T06:39:41.255Z,1.62
2023-03-26T06:40:45.778Z,1.50
2023-03-26T06:41:49.199Z,1.52
2023-03-26T06:43:08.530Z,1.45
2023-03-26T06:44:13.429Z,1.35
2023-03-26T06:45:19.876Z,1.73
2023-03-26T06:46:26.532Z,1.17
2023-03-26T06:47:29.591Z,1.02
2023-03-26T06:48:33.150Z,1.37
2023-03-26T06:49:36.093Z,1.10
2023-03-26T06:50:38.439Z,0.80
2023-03-26T06:51:41.491Z,0.80
2023-03-26T06:52:44.733Z,0.93
2023-03-26T06:53:47.024Z,0.60
2023-03-26T06:54:51.278Z,0.52
2023-03-26T06:55:57.248Z,1.00
2023-03-26T06:56:59.951Z,0.80
2023-03-26T06:58:02.617Z,0.80
2023-03-26T06:59:04.946Z,0.85
2023-03-26T07:00:26.680Z,0.82
2023-03-26T07:01:36.651Z,0.98
2023-03-26T07:02:53.587Z,0.90
2023-03-26T07:04:07.440Z,0.93
2023-03-26T07:05:18.794Z,0.70
2023-03-26T07:06:28.130Z,0.80
2023-03-26T07:07:35.726Z,0.80
2023-03-26T07:08:52.239Z,0.95
2023-03-26T07:09:57.681Z,1.05
2023-03-26T07:11:01.970Z,0.93
2023-03-26T07:12:04.884Z,0.90
2023-03-26T07:13:08.063Z,0.95
2023-03-26T07:14:11.967Z,0.70
2023-03-26T07:15:15.072Z,0.98
2023-03-26T07:16:17.767Z,0.90
2023-03-26T07:17:22.582Z,0.90
2023-03-26T07:18:24.797Z,1.02
2023-03-26T07:19:27.376Z,0.80
2023-03-26T07:20:29.544Z,0.68
2023-03-26T07:21:31.907Z,0.80
2023-03-26T07:22:35.369Z,0.90
2023-03-26T07:23:42.114Z,2.10
2023-03-26T07:24:48.013Z,0.98
2023-03-26T07:25:51.624Z,0.80
2023-03-26T07:27:24.065Z,1.15
2023-03-26T07:28:40.131Z,1.00
2023-03-26T07:29:47.447Z,0.88
2023-03-26T07:31:20.128Z,0.90
2023-03-26T07:33:39.948Z,0.82
2023-03-26T07:34:49.026Z,0.80
2023-03-26T07:35:57.106Z,0.80
2023-03-26T07:37:12.606Z,0.82
2023-03-26T07:38:30.445Z,1.10
2023-03-26T07:40:03.546Z,0.80
2023-03-26T07:41:24.417Z,0.70
2023-03-26T07:42:41.192Z,0.77
2023-03-26T07:44:03.401Z,1.35
2023-03-26T07:45:21.221Z,1.35
2023-03-26T07:46:34.393Z,1.30
2023-03-26T07:47:37.511Z,2.72
2023-03-26T07:48:45.151Z,1.80
2023-03-26T07:49:47.532Z,1.30
2023-03-26T07:50:50.296Z,1.45
2023-03-26T07:51:53.904Z,1.58
2023-03-26T07:52:56.916Z,1.80
2023-03-26T07:54:04.098Z,2.00
2023-03-26T07:55:07.408Z,1.37
2023-03-26T07:56:18.008Z,1.70
2023-03-26T07:57:40.742Z,0.90
2023-03-26T07:59:07.749Z,0.90
2023-03-26T08:00:37.345Z,0.70
2023-03-26T08:02:20.001Z,0.85
2023-03-26T08:03:44.997Z,0.98
2023-03-26T08:05:19.785Z,1.17
2023-03-26T08:06:34.195Z,1.58
2023-03-26T08:07:58.511Z,1.10
2023-03-26T08:09:04.854Z,1.40
2023-03-26T08:10:39.182Z,1.87
2023-03-26T08:12:06.749Z,1.60
2023-03-26T08:13:22.973Z,1.58
2023-03-26T08:14:36.448Z,1.33
2023-03-26T08:15:46.104Z,1.50
2023-03-26T08:16:56.436Z,1.33
2023-03-26T08:18:21.801Z,1.50
2023-03-26T08:19:44.823Z,1.30
2023-03-26T08:20:51.012Z,1.30
2023-03-26T08:21:54.462Z,1.20
2023-03-26T08:23:19.423Z,1.45
2023-03-26T08:24:47.620Z,0.98
2023-03-26T08:26:31.187Z,1.15
2023-03-26T08:28:12.611Z,1.00
2023-03-26T08:29:45.291Z,0.82
2023-03-26T08:30:47.369Z,1.05
2023-03-26T08:31:49.856Z,1.00
2023-03-26T08:33:13.499Z,0.77
2023-03-26T08:34:15.857Z,1.10
2023-03-26T08:35:17.960Z,0.93
2023-03-26T08:36:19.864Z,1.20
2023-03-26T08:37:22.043Z,0.95
2023-03-26T08:38:23.950Z,1.02
2023-03-26T08:39:25.800Z,1.10
2023-03-26T08:40:48.070Z,1.05
2023-03-26T08:42:54.822Z,0.90
2023-03-26T08:44:02.675Z,0.60
2023-03-26T08:45:23.374Z,0.90
2023-03-26T08:46:34.013Z,1.00
2023-03-26T08:47:45.367Z,0.90
2023-03-26T08:48:59.911Z,0.82
2023-03-26T08:50:20.265Z,0.70
2023-03-26T08:51:31.011Z,0.73
2023-03-26T08:52:48.164Z,0.85
2023-03-26T08:54:06.256Z,0.65
2023-03-26T08:55:37.826Z,0.60
2023-03-26T08:57:06.247Z,1.00
2023-03-26T08:58:33.282Z,0.82
2023-03-26T08:59:41.411Z,0.80
2023-03-26T09:01:05.200Z,0.95
2023-03-26T09:02:54.522Z,0.93
2023-03-26T09:03:59.021Z,0.88
2023-03-26T09:05:20.692Z,0.90
2023-03-26T09:06:54.999Z,0.73
2023-03-26T09:08:18.860Z,0.62
2023-03-26T09:09:39.970Z,0.60
2023-03-26T09:10:51.362Z,0.80
2023-03-26T09:11:56.073Z,0.80
2023-03-26T09:13:09.783Z,0.90
2023-03-26T09:14:24.306Z,1.17
2023-03-26T09:15:32.107Z,1.00
2023-03-26T09:17:02.007Z,1.00
2023-03-26T09:18:09.806Z,0.98
2023-03-26T09:19:49.546Z,0.98
2023-03-26T09:21:16.478Z,0.65
2023-03-26T09:23:07.000Z,1.12
2023-03-26T09:24:37.593Z,0.73
2023-03-26T09:26:11.471Z,0.80
2023-03-26T09:27:38.124Z,0.90
2023-03-26T09:29:18.364Z,0.60
2023-03-26T09:30:41.364Z,0.80
2023-03-26T09:32:02.434Z,0.82
2023-03-26T09:33:28.413Z,1.30
2023-03-26T09:34:57.077Z,0.70
2023-03-26T09:36:32.283Z,0.80
2023-03-26T09:38:06.494Z,0.73
2023-03-26T09:39:36.616Z,1.00
2023-03-26T09:41:01.456Z,0.98
2023-03-26T09:42:41.991Z,1.40
2023-03-26T09:44:21.063Z,1.20
2023-03-26T09:45:43.710Z,1.35
2023-03-26T09:47:10.609Z,1.10
2023-03-26T09:48:24.570Z,1.10
2023-03-26T09:50:02.038Z,1.00
2023-03-26T09:51:09.348Z,1.20
2023-03-26T09:52:14.803Z,1.15
2023-03-26T09:53:41.484Z,1.10
2023-03-26T09:55:19.695Z,1.08
2023-03-26T09:56:30.751Z,1.42
2023-03-26T09:57:53.828Z,1.62
2023-03-26T09:59:08.195Z,0.90
2023-03-26T10:00:31.354Z,1.08
2023-03-26T10:01:53.881Z,0.95
2023-03-26T10:02:55.700Z,1.08
2023-03-26T10:04:16.111Z,0.88
2023-03-26T10:05:41.386Z,1.10
2023-03-26T10:07:05.487Z,1.08
2023-03-26T10:08:18.581Z,0.90
2023-03-26T10:09:20.610Z,1.20
2023-03-26T10:10:53.242Z,1.12
2023-03-26T10:12:15.864Z,1.00
2023-03-26T10:15:18.127Z,1.30
2023-03-26T10:16:44.131Z,1.20
2023-03-26T10:18:28.225Z,0.88
2023-03-26T10:19:47.838Z,0.85
2023-03-26T10:21:03.617Z,0.90
2023-03-26T10:22:09.766Z,1.05
2023-03-26T10:23:18.614Z,0.90
2023-03-26T10:24:57.683Z,1.48
2023-03-26T10:26:14.401Z,0.95
2023-03-26T10:27:34.598Z,0.70
2023-03-26T10:28:36.844Z,0.62
2023-03-26T10:30:04.095Z,1.30
2023-03-26T10:31:37.815Z,0.82
2023-03-26T10:33:11.671Z,0.85
2023-03-26T10:34:28.082Z,0.80
2023-03-26T10:35:31.340Z,0.80
2023-03-26T10:36:43.018Z,1.10
2023-03-26T10:38:06.552Z,1.00
2023-03-26T10:39:36.167Z,0.90
2023-03-26T10:41:07.606Z,1.12
2023-03-26T10:42:16.474Z,0.90
2023-03-26T10:44:07.301Z,1.10
2023-03-26T10:45:37.515Z,1.02
2023-03-26T10:47:10.923Z,0.80
2023-03-26T10:48:27.804Z,0.85
2023-03-26T10:49:41.582Z,1.62
2023-03-26T10:51:53.407Z,0.90
2023-03-26T10:53:12.574Z,0.80
2023-03-26T10:54:20.515Z,0.80
2023-03-26T10:55:40.784Z,0.60
2023-03-26T10:56:47.077Z,0.75
2023-03-26T10:57:56.125Z,0.80
2023-03-26T10:59:05.387Z,0.62
2023-03-26T11:00:37.720Z,0.73
2023-03-26T11:01:54.861Z,0.75
2023-03-26T11:03:20.783Z,0.88
2023-03-26T11:04:42.911Z,0.70
2023-03-26T11:06:16.137Z,0.65
2023-03-26T11:07:38.313Z,0.60
2023-03-26T11:08:55.640Z,0.75
2023-03-26T11:10:01.794Z,0.62
2023-03-26T11:11:16.842Z,0.70
2023-03-26T11:12:26.738Z,0.70
2023-03-26T11:13:29.977Z,0.60
2023-03-26T11:14:37.885Z,0.65
2023-03-26T11:16:03.166Z,0.70
2023-03-26T11:17:40.021Z,0.73
2023-03-26T11:19:08.108Z,0.47
2023-03-26T11:20:31.347Z,1.00
2023-03-26T11:21:38.095Z,0.70
2023-03-26T11:22:43.019Z,0.90
2023-03-26T11:24:08.998Z,0.60
2023-03-26T11:25:26.130Z,0.77
2023-03-26T11:26:55.771Z,0.62
2023-03-26T11:28:09.522Z,0.80
2023-03-26T11:29:31.598Z,0.80
2023-03-26T11:30:49.961Z,0.70
2023-03-26T11:32:15.578Z,0.77
2023-03-26T11:33:26.826Z,0.93
2023-03-26T11:34:58.274Z,1.00
2023-03-26T11:36:07.699Z,1.00
2023-03-26T11:37:18.870Z,0.90
2023-03-26T11:38:37.417Z,0.88
2023-03-26T11:39:51.240Z,0.90
2023-03-26T11:40:56.338Z,1.00
2023-03-26T11:42:07.566Z,1.20
2023-03-26T11:43:13.873Z,1.10
2023-03-26T11:44:27.520Z,1.10
2023-03-26T11:45:38.096Z,0.90
2023-03-26T11:46:44.327Z,1.10
2023-03-26T11:47:54.577Z,1.10
2023-03-26T11:48:59.878Z,1.20
2023-03-26T11:50:05.724Z,1.00
2023-03-26T11:51:11.664Z,0.73
2023-03-26T11:52:15.734Z,1.00
2023-03-26T11:53:20.661Z,0.98
2023-03-26T11:54:22.684Z,1.00
2023-03-26T11:55:27.574Z,1.02
2023-03-26T11:57:04.793Z,0.98
2023-03-26T11:58:18.080Z,1.20
2023-03-26T11:59:45.148Z,0.90
2023-03-26T12:00:54.874Z,1.20
2023-03-26T12:02:24.547Z,1.02
2023-03-26T12:03:30.254Z,1.00
2023-03-26T12:04:41.098Z,0.98
2023-03-26T12:05:53.619Z,1.00
2023-03-26T12:06:59.721Z,1.12
2023-03-26T12:08:27.493Z,1.00
2023-03-26T12:09:29.869Z,0.90
2023-03-26T12:10:41.369Z,1.27
2023-03-26T12:11:45.176Z,1.00
2023-03-26T12:12:47.979Z,0.93
2023-03-26T12:13:58.074Z,1.08
2023-03-26T12:15:01.062Z,1.08
2023-03-26T12:16:15.375Z,0.85
2023-03-26T12:17:36.788Z,1.05
2023-03-26T12:18:41.139Z,0.90
2023-03-26T12:19:45.588Z,1.08
2023-03-26T12:20:49.496Z,0.90
2023-03-26T12:21:52.999Z,0.80
2023-03-26T12:22:59.232Z,1.12
2023-03-26T12:24:05.219Z,0.98
2023-03-26T12:25:21.087Z,0.85
2023-03-26T12:26:56.770Z,0.90
2023-03-26T12:28:13.838Z,1.10
2023-03-26T12:29:19.099Z,0.95
2023-03-26T12:30:25.961Z,1.00
2023-03-26T12:31:30.421Z,0.80
2023-03-26T12:32:43.320Z,0.70
2023-03-26T12:34:06.410Z,0.80
2023-03-26T12:35:18.935Z,0.82
2023-03-26T12:36:24.692Z,0.80
2023-03-26T12:37:38.571Z,0.90
2023-03-26T12:38:42.437Z,0.75
2023-03-26T12:40:09.321Z,0.90
2023-03-26T12:44:42.056Z,0.80
2023-03-26T12:44:45.118Z,0.90
2023-03-26T12:44:57.674Z,0.80
2023-03-26T12:47:46.148Z,0.75
2023-03-26T12:47:59.035Z,0.70
2023-03-26T12:48:59.828Z,0.60
2023-03-26T12:50:01.949Z,0.73
2023-03-26T12:51:15.795Z,0.77
2023-03-26T12:52:53.125Z,0.80
2023-03-26T12:54:13.522Z,0.70
2023-03-26T12:55:28.895Z,0.75
2023-03-26T12:57:12.404Z,0.80
2023-03-26T12:58:42.787Z,0.65
2023-03-26T12:59:53.420Z,0.60
2023-03-26T13:01:18.782Z,0.70
2023-03-26T13:02:39.404Z,0.68
2023-03-26T13:04:15.142Z,0.70
2023-03-26T13:05:23.782Z,0.82
2023-03-26T13:06:33.677Z,0.80
2023-03-26T13:08:13.765Z,0.62
2023-03-26T13:09:57.540Z,0.90
2023-03-26T13:11:17.242Z,0.90
2023-03-26T13:12:38.292Z,0.70
2023-03-26T13:14:04.838Z,0.98
2023-03-26T13:15:17.873Z,0.80
2023-03-26T13:16:46.604Z,0.90
2023-03-26T13:17:57.965Z,0.70
2023-03-26T13:19:20.691Z,0.45
2023-03-26T13:20:35.093Z,0.90
2023-03-26T13:22:07.350Z,0.68
2023-03-26T13:23:32.670Z,0.70
2023-03-26T13:24:40.310Z,0.70
2023-03-26T13:26:00.887Z,0.88
2023-03-26T13:27:20.996Z,0.60
2023-03-26T13:28:36.519Z,0.65
2023-03-26T13:30:07.656Z,0.68
2023-03-26T13:31:23.990Z,0.70
2023-03-26T13:32:42.647Z,0.50
2023-03-26T13:34:19.275Z,0.60
2023-03-26T13:35:42.447Z,0.50
2023-03-26T13:37:07.406Z,0.40
2023-03-26T13:38:37.215Z,0.70
2023-03-26T13:40:10.233Z,0.60
2023-03-26T13:41:20.972Z,0.52
2023-03-26T13:42:28.917Z,0.80
2023-03-26T13:43:36.801Z,0.60
2023-03-26T13:45:05.193Z,0.60
2023-03-26T13:46:29.987Z,0.80
2023-03-26T13:47:38.468Z,0.50
2023-03-26T13:48:52.999Z,0.50
2023-03-26T13:50:14.431Z,0.55
2023-03-26T13:51:26.410Z,0.43
2023-03-26T13:52:37.586Z,0.40
2023-03-26T13:53:50.527Z,0.43
2023-03-26T13:55:03.748Z,0.50
2023-03-26T13:56:07.237Z,0.60
2023-03-26T13:57:17.340Z,0.80
2023-03-26T13:58:43.307Z,0.50
2023-03-26T13:59:56.369Z,0.40
2023-03-26T14:01:11.037Z,0.50
2023-03-26T14:02:22.912Z,0.50
2023-03-26T14:03:46.148Z,0.55
2023-03-26T14:04:53.641Z,0.30
2023-03-26T14:06:00.201Z,0.40
2023-03-26T14:07:15.718Z,0.52
2023-03-26T14:08:41.836Z,0.40
2023-03-26T14:09:56.990Z,0.40
2023-03-26T14:11:07.757Z,0.50
2023-03-26T14:12:34.101Z,0.50
2023-03-26T14:13:39.260Z,0.65
2023-03-26T14:14:49.057Z,0.60
2023-03-26T14:16:20.941Z,0.47
2023-03-26T14:18:07.346Z,0.40
2023-03-26T14:19:12.458Z,0.45
2023-03-26T14:20:29.289Z,0.68
2023-03-26T14:22:08.215Z,0.45
2023-03-26T14:23:31.160Z,0.40
2023-03-26T14:24:53.875Z,0.28
2023-03-26T14:26:20.218Z,0.50
2023-03-26T14:27:40.550Z,0.52
2023-03-26T14:28:59.362Z,0.68
2023-03-26T14:30:23.130Z,0.60
2023-03-26T14:31:34.229Z,0.52
2023-03-26T14:33:27.574Z,0.50
2023-03-26T14:35:11.139Z,0.32
2023-03-26T14:36:34.449Z,0.57
2023-03-26T14:37:51.637Z,0.60
2023-03-26T14:39:27.085Z,0.68
2023-03-26T14:40:58.596Z,0.50
2023-03-26T14:42:25.852Z,0.57
2023-03-26T14:43:43.678Z,0.50
2023-03-26T14:45:01.317Z,0.43
2023-03-26T14:46:31.387Z,0.50
2023-03-26T14:47:43.348Z,0.40
2023-03-26T14:49:07.061Z,0.47
2023-03-26T14:50:31.479Z,0.40
2023-03-26T14:51:52.269Z,0.47
2023-03-26T14:53:00.836Z,0.30
2023-03-26T14:54:17.209Z,0.52
2023-03-26T14:55:37.196Z,0.50
2023-03-26T14:57:00.325Z,0.40
2023-03-26T14:58:10.768Z,0.40
2023-03-26T14:59:47.280Z,0.40
2023-03-26T15:01:25.984Z,0.37
2023-03-26T15:03:07.479Z,0.30
2023-03-26T15:04:15.838Z,0.50
2023-03-26T15:05:36.825Z,0.73
2023-03-26T15:07:16.021Z,0.60
2023-03-26T15:08:38.942Z,0.52
2023-03-26T15:10:18.628Z,0.40
2023-03-26T15:12:12.686Z,0.70
2023-03-26T15:13:33.962Z,0.75
2023-03-26T15:14:51.068Z,0.57
2023-03-26T15:16:27.542Z,0.50
2023-03-26T15:17:34.476Z,0.50
2023-03-26T15:19:03.973Z,0.50
2023-03-26T15:20:31.989Z,0.30
2023-03-26T15:21:46.547Z,0.30
2023-03-26T15:23:07.401Z,0.30
2023-03-26T15:24:50.974Z,0.60
2023-03-26T15:26:24.177Z,0.57
2023-03-26T15:27:42.362Z,0.47
2023-03-26T15:28:56.576Z,0.40
2023-03-26T15:30:41.372Z,0.50
2023-03-26T15:32:22.378Z,0.43
2023-03-26T15:33:54.797Z,0.60
2023-03-26T15:36:51.014Z,0.60
2023-03-26T15:37:56.633Z,0.85
2023-03-26T15:39:23.453Z,0.60
2023-03-26T15:40:41.742Z,0.77
2023-03-26T15:41:53.545Z,0.70
2023-03-26T15:44:23.466Z,0.93
2023-03-26T15:45:36.690Z,1.20
2023-03-26T15:46:38.623Z,1.10
2023-03-26T15:48:10.539Z,0.85
2023-03-26T15:49:55.032Z,0.82
2023-03-26T15:51:07.698Z,0.80
2023-03-26T15:52:33.096Z,0.82
2023-03-26T15:53:57.301Z,1.10
2023-03-26T15:55:36.282Z,0.90
2023-03-26T15:57:08.873Z,0.82
2023-03-26T15:58:35.520Z,1.20
2023-03-26T16:00:15.387Z,1.58
2023-03-26T16:01:33.800Z,2.80
2023-03-26T16:03:10.197Z,1.80
2023-03-26T16:05:09.432Z,1.65
2023-03-26T16:06:28.104Z,1.10
2023-03-26T16:07:53.176Z,1.27
2023-03-26T16:09:08.586Z,1.17
2023-03-26T16:10:14.002Z,1.12
2023-03-26T16:11:53.887Z,0.98
2023-03-26T16:13:27.410Z,1.10
2023-03-26T16:14:35.922Z,0.80
2023-03-26T16:15:38.362Z,1.17